Time;durP1;ratioP1;P1;durP2;ratioP2;P2;SDS_P1;SDS_P2;PMS_P1;PMS_P2;Temp;Humidity;BMP_temperature;BMP_pressure;BME280_temperature;BME280_humidity;BME280_pressure;Samples;Min_cycle;Max_cycle;Signal;HPM_P1;HPM_P2
2023/12/28 02:21:43;;;;;;;9.30;7.47;;;1.60;99.90;;;;;;5077920;23;20242;-86
2023/12/28 02:24:09;;;;;;;9.17;6.70;;;1.60;99.90;;;;;;4937157;29;20194;-86
2023/12/28 02:26:35;;;;;;;8.10;6.63;;;1.70;99.90;;;;;;4936531;29;20284;-86
2023/12/28 02:29:00;;;;;;;8.73;6.80;;;1.80;99.90;;;;;;4920517;29;20189;-86
2023/12/28 02:31:32;;;;;;;7.40;6.20;;;1.90;99.90;;;;;;4920853;29;20209;-86
2023/12/28 02:34:04;;;;;;;7.23;6.53;;;2.00;99.90;;;;;;4920356;29;20270;-86
2023/12/28 02:36:30;;;;;;;6.53;5.83;;;2.10;99.90;;;;;;4920506;29;20185;-86
2023/12/28 02:38:58;;;;;;;7.13;6.43;;;2.00;99.90;;;;;;4920881;29;20653;-86
2023/12/28 02:41:25;;;;;;;9.53;6.20;;;2.10;99.90;;;;;;4920153;29;20344;-86
2023/12/28 02:43:50;;;;;;;7.27;6.57;;;2.10;99.90;;;;;;4920245;29;20555;-86
2023/12/28 02:46:16;;;;;;;6.07;5.50;;;2.10;99.90;;;;;;4920021;29;20202;-86
2023/12/28 02:48:42;;;;;;;6.50;5.17;;;2.20;99.90;;;;;;4920383;29;20166;-86
2023/12/28 02:51:08;;;;;;;6.13;5.60;;;2.30;99.90;;;;;;4920135;29;20582;-86
2023/12/28 02:53:33;;;;;;;6.23;5.70;;;2.30;99.90;;;;;;4920038;29;20174;-86
2023/12/28 02:55:59;;;;;;;6.20;5.67;;;2.30;99.90;;;;;;4920349;29;20524;-86
2023/12/28 02:58:24;;;;;;;6.27;5.67;;;2.30;99.90;;;;;;4919977;29;20215;-85
2023/12/28 03:00:50;;;;;;;7.20;5.53;;;2.30;99.90;;;;;;4920155;29;20206;-85
2023/12/28 03:03:15;;;;;;;6.47;5.87;;;2.40;99.90;;;;;;4920342;29;20273;-85
2023/12/28 03:05:41;;;;;;;7.07;5.80;;;2.50;99.90;;;;;;4919756;29;20257;-85
2023/12/28 03:08:07;;;;;;;5.50;5.00;;;2.60;99.90;;;;;;4920115;29;20183;-85
2023/12/28 03:10:32;;;;;;;6.10;5.50;;;2.50;99.90;;;;;;4919475;29;20290;-85
2023/12/28 03:12:58;;;;;;;6.87;5.87;;;2.40;99.90;;;;;;4919742;29;20189;-85
2023/12/28 03:15:23;;;;;;;6.70;6.10;;;2.30;99.90;;;;;;4919707;29;20178;-85
2023/12/28 03:17:49;;;;;;;7.77;6.50;;;2.20;99.90;;;;;;4919750;29;20193;-85
2023/12/28 03:20:15;;;;;;;7.20;6.50;;;2.20;99.90;;;;;;4919140;29;20212;-85
2023/12/28 03:22:41;;;;;;;6.97;6.27;;;2.20;99.90;;;;;;4919730;29;20218;-85
2023/12/28 03:25:07;;;;;;;6.37;5.77;;;2.20;99.90;;;;;;4919813;29;20186;-85
2023/12/28 03:27:33;;;;;;;6.33;5.53;;;2.20;99.90;;;;;;4936488;29;20209;-85
2023/12/28 03:29:58;;;;;;;6.00;5.50;;;2.40;99.90;;;;;;4919322;29;20222;-85
2023/12/28 03:32:24;;;;;;;7.30;5.80;;;2.50;99.90;;;;;;4919386;29;20190;-85
2023/12/28 03:34:49;;;;;;;6.00;5.50;;;2.50;99.90;;;;;;4920485;29;20193;-85
2023/12/28 03:37:15;;;;;;;6.40;5.80;;;2.60;99.90;;;;;;4919607;29;20245;-85
2023/12/28 03:39:41;;;;;;;6.80;6.17;;;2.60;99.90;;;;;;4919501;29;20197;-85
2023/12/28 03:42:06;;;;;;;7.30;5.90;;;2.70;99.90;;;;;;4920025;29;20186;-85
2023/12/28 03:44:32;;;;;;;5.80;5.27;;;2.70;99.90;;;;;;4936361;29;20605;-86
2023/12/28 03:46:57;;;;;;;5.63;5.20;;;2.70;99.90;;;;;;4920237;29;20206;-86
2023/12/28 03:49:23;;;;;;;5.77;5.27;;;2.80;99.90;;;;;;4919202;29;20177;-86
2023/12/28 03:51:50;;;;;;;6.10;5.50;;;2.80;99.90;;;;;;4919133;29;20205;-86
2023/12/28 03:54:19;;;;;;;5.80;5.30;;;2.90;99.90;;;;;;4919055;29;20186;-86
2023/12/28 03:56:46;;;;;;;5.63;5.20;;;2.90;99.90;;;;;;4919766;29;20190;-86
2023/12/28 03:59:12;;;;;;;6.03;5.53;;;3.00;99.90;;;;;;4919147;29;20191;-86
2023/12/28 04:01:37;;;;;;;5.87;5.37;;;3.00;99.90;;;;;;4919009;29;20217;-85
2023/12/28 04:04:03;;;;;;;5.63;5.13;;;3.10;99.90;;;;;;4919564;29;20190;-85
2023/12/28 04:06:29;;;;;;;6.53;5.93;;;3.10;99.90;;;;;;4918826;29;20209;-85
2023/12/28 04:08:54;;;;;;;5.83;5.23;;;3.00;99.90;;;;;;4918961;29;20338;-85
2023/12/28 04:11:20;;;;;;;6.47;5.80;;;2.90;99.90;;;;;;4918956;29;20214;-85
2023/12/28 04:13:46;;;;;;;6.33;5.73;;;2.90;99.90;;;;;;4919885;29;20187;-85
2023/12/28 04:16:15;;;;;;;6.70;6.03;;;2.90;99.90;;;;;;4919066;29;20192;-85
2023/12/28 04:18:43;;;;;;;8.07;5.90;;;3.00;99.90;;;;;;4918873;29;20182;-85
2023/12/28 04:21:10;;;;;;;7.10;6.40;;;3.10;99.90;;;;;;4918678;29;20225;-85
2023/12/28 04:23:36;;;;;;;6.67;6.00;;;3.10;99.90;;;;;;4913825;29;20721;-85
2023/12/28 04:26:02;;;;;;;7.33;6.53;;;2.90;99.90;;;;;;4899786;29;20217;-85
2023/12/28 04:28:28;;;;;;;7.27;6.57;;;2.70;99.90;;;;;;4900337;29;20186;-85
2023/12/28 04:30:53;;;;;;;5.90;5.40;;;2.60;99.90;;;;;;4900215;29;20273;-85
2023/12/28 04:33:19;;;;;;;8.67;6.93;;;2.70;99.90;;;;;;4902711;29;20221;-85
2023/12/28 04:35:45;;;;;;;7.23;6.50;;;2.80;99.90;;;;;;4903580;29;20183;-85
2023/12/28 04:38:11;;;;;;;8.07;7.27;;;2.90;99.90;;;;;;4903422;29;20187;-85
2023/12/28 04:40:36;;;;;;;6.90;6.27;;;3.00;99.90;;;;;;4903454;29;20207;-85
2023/12/28 04:43:02;;;;;;;7.47;6.73;;;3.10;99.90;;;;;;4904599;29;20179;-85
2023/12/28 04:45:28;;;;;;;10.03;8.90;;;3.10;99.90;;;;;;4903377;29;20192;-85
2023/12/28 04:47:54;;;;;;;10.80;8.90;;;3.10;99.90;;;;;;4903369;29;20183;-85
2023/12/28 04:50:19;;;;;;;11.03;8.10;;;3.20;99.90;;;;;;4903050;29;20209;-85
2023/12/28 04:52:45;;;;;;;9.43;8.27;;;3.20;99.90;;;;;;4903887;29;20179;-85
2023/12/28 04:55:11;;;;;;;7.80;7.00;;;3.30;99.90;;;;;;4903259;29;20187;-85
2023/12/28 04:57:36;;;;;;;6.60;5.90;;;3.40;99.90;;;;;;4904016;29;20191;-85
2023/12/28 05:00:03;;;;;;;6.80;6.10;;;3.50;99.90;;;;;;4903442;29;20233;-85
2023/12/28 05:02:28;;;;;;;6.47;5.80;;;3.60;99.90;;;;;;4903205;29;20187;-85
2023/12/28 05:04:54;;;;;;;6.17;5.57;;;3.60;99.90;;;;;;4903362;29;20182;-85
2023/12/28 05:07:19;;;;;;;7.30;5.80;;;3.60;99.90;;;;;;4903276;29;20225;-85
2023/12/28 05:09:45;;;;;;;6.90;6.20;;;3.60;99.90;;;;;;4903280;29;20229;-85
2023/12/28 05:12:11;;;;;;;5.50;4.90;;;3.60;99.90;;;;;;4902752;29;20183;-85
2023/12/28 05:14:36;;;;;;;6.20;4.50;;;3.60;99.90;;;;;;4903551;29;20175;-85
2023/12/28 05:17:02;;;;;;;5.73;4.20;;;3.70;99.90;;;;;;4903615;29;20242;-85
2023/12/28 05:19:28;;;;;;;4.43;4.03;;;3.90;99.90;;;;;;4903020;29;20195;-85
2023/12/28 05:21:53;;;;;;;4.43;4.03;;;4.00;99.90;;;;;;4902590;29;20226;-85
2023/12/28 05:24:19;;;;;;;5.37;4.23;;;4.30;99.90;;;;;;4903079;29;20187;-85
2023/12/28 05:26:44;;;;;;;4.03;3.63;;;4.30;99.90;;;;;;4902958;29;20309;-85
2023/12/28 05:29:10;;;;;;;4.00;3.60;;;4.40;99.90;;;;;;4902689;29;20542;-85
2023/12/28 05:31:36;;;;;;;4.10;3.70;;;4.50;99.90;;;;;;4902949;29;20207;-85
2023/12/28 05:34:02;;;;;;;5.43;3.77;;;4.60;99.90;;;;;;4902585;29;20218;-85
2023/12/28 05:36:27;;;;;;;4.63;4.07;;;4.70;99.90;;;;;;4902570;29;20186;-85
2023/12/28 05:38:53;;;;;;;4.20;3.53;;;4.70;99.90;;;;;;4902495;29;20225;-85
2023/12/28 05:41:18;;;;;;;6.37;4.20;;;4.70;99.90;;;;;;4902715;29;20708;-85
2023/12/28 05:43:44;;;;;;;4.83;3.90;;;4.80;99.90;;;;;;4902668;29;20182;-85
2023/12/28 05:46:09;;;;;;;4.20;3.73;;;4.80;99.90;;;;;;4902276;29;20215;-86
2023/12/28 05:48:35;;;;;;;5.57;3.70;;;4.90;99.90;;;;;;4902505;29;20577;-86
2023/12/28 05:51:01;;;;;;;6.70;4.60;;;5.00;99.90;;;;;;4919398;29;20205;-86
2023/12/28 05:53:27;;;;;;;5.13;3.90;;;5.00;99.90;;;;;;4902471;29;20602;-85
2023/12/28 05:55:53;;;;;;;4.10;3.70;;;5.00;99.90;;;;;;4902781;29;20273;-85
2023/12/28 05:58:19;;;;;;;4.50;4.10;;;5.10;99.90;;;;;;4919090;29;20218;-89
2023/12/28 06:00:46;;;;;;;5.67;4.27;;;5.10;99.90;;;;;;4902258;29;20202;-86
2023/12/28 06:03:12;;;;;;;4.90;3.80;;;5.10;99.90;;;;;;4902266;29;20179;-86
2023/12/28 06:05:37;;;;;;;5.40;3.90;;;5.20;99.90;;;;;;4902253;29;20270;-86
2023/12/28 06:08:03;;;;;;;6.10;4.30;;;5.20;99.90;;;;;;4901940;29;20669;-85
2023/12/28 06:10:29;;;;;;;5.57;4.00;;;5.20;99.90;;;;;;4902045;29;20206;-85
2023/12/28 06:12:55;;;;;;;4.87;4.20;;;5.30;99.90;;;;;;4901854;29;20183;-86
2023/12/28 06:15:20;;;;;;;4.77;4.10;;;5.30;99.90;;;;;;4902078;29;20183;-86
2023/12/28 06:17:46;;;;;;;4.90;4.23;;;5.40;99.90;;;;;;4902296;29;20175;-86
2023/12/28 06:20:12;;;;;;;4.73;3.97;;;5.40;99.90;;;;;;4901769;29;20222;-86
2023/12/28 06:22:37;;;;;;;4.43;3.97;;;5.40;99.90;;;;;;4901783;29;20186;-86
2023/12/28 06:25:04;;;;;;;4.63;3.73;;;5.50;99.90;;;;;;4902018;29;20189;-86
2023/12/28 06:27:30;;;;;;;4.63;4.00;;;5.50;99.90;;;;;;4901593;29;20214;-86
2023/12/28 06:29:56;;;;;;;3.90;3.60;;;5.50;99.90;;;;;;4901727;29;20274;-86
2023/12/28 06:32:24;;;;;;;4.70;3.87;;;5.50;99.90;;;;;;4901348;29;20187;-86
2023/12/28 06:34:49;;;;;;;5.30;4.03;;;5.50;99.90;;;;;;4918542;29;20179;-86
2023/12/28 06:37:15;;;;;;;4.30;3.90;;;5.60;99.90;;;;;;4901303;29;20238;-85
2023/12/28 06:39:44;;;;;;;3.80;3.50;;;5.60;99.90;;;;;;4901264;29;20183;-85
2023/12/28 06:42:09;;;;;;;4.27;3.80;;;5.70;99.90;;;;;;4902190;29;20190;-85
2023/12/28 06:44:35;;;;;;;7.67;4.03;;;5.60;99.90;;;;;;4901284;29;20193;-85
2023/12/28 06:47:00;;;;;;;58.58;43.58;;;5.60;99.90;;;;;;4901101;29;20253;-85
2023/12/28 06:49:26;;;;;;;12.27;10.97;;;5.60;99.90;;;;;;4901182;29;20239;-85
2023/12/28 06:51:52;;;;;;;21.10;18.07;;;5.60;99.90;;;;;;4901798;29;20210;-85
2023/12/28 06:54:17;;;;;;;34.30;24.23;;;5.60;99.90;;;;;;4901185;29;20182;-85
2023/12/28 06:56:43;;;;;;;7.47;6.70;;;5.60;99.90;;;;;;4901138;29;20182;-85
2023/12/28 06:59:12;;;;;;;20.30;18.23;;;5.60;99.90;;;;;;4901551;29;20193;-85
2023/12/28 07:01:40;;;;;;;10.10;9.10;;;5.60;99.90;;;;;;4917959;29;20210;-85
2023/12/28 07:04:06;;;;;;;9.20;7.83;;;5.50;99.90;;;;;;4901807;29;20273;-85
2023/12/28 07:06:32;;;;;;;11.67;7.97;;;5.40;99.90;;;;;;4901086;29;20218;-85
2023/12/28 07:08:57;;;;;;;10.10;9.07;;;5.50;99.90;;;;;;4901005;29;20209;-85
2023/12/28 07:11:23;;;;;;;13.25;11.15;;;5.50;99.90;;;;;;4900795;29;20588;-85
2023/12/28 07:13:49;;;;;;;12.02;10.73;;;5.50;99.90;;;;;;4901571;29;20264;-86
2023/12/28 07:16:15;;;;;;;9.52;8.57;;;5.60;99.90;;;;;;4900620;29;20187;-86
2023/12/28 07:18:41;;;;;;;7.57;6.75;;;5.60;99.90;;;;;;4900862;29;20186;-86
2023/12/28 07:21:10;;;;;;;9.60;8.60;;;5.60;99.90;;;;;;4900673;29;20227;-86
2023/12/28 07:23:36;;;;;;;8.90;8.00;;;5.70;99.90;;;;;;4900813;29;20187;-86
2023/12/28 07:26:02;;;;;;;7.40;6.50;;;5.60;99.90;;;;;;4900538;29;20210;-86
2023/12/28 07:28:28;;;;;;;6.47;5.00;;;5.60;99.90;;;;;;4900598;29;20225;-86
2023/12/28 07:30:54;;;;;;;14.07;12.75;;;5.60;99.90;;;;;;4902019;29;20307;-85
2023/12/28 07:33:20;;;;;;;13.00;11.70;;;5.60;99.90;;;;;;4916863;29;20671;-85
2023/12/28 07:35:46;;;;;;;8.43;7.63;;;5.60;99.90;;;;;;4912731;29;20187;-86
2023/12/28 07:38:12;;;;;;;8.87;8.07;;;5.60;99.90;;;;;;4916077;29;20189;-86
2023/12/28 07:40:38;;;;;;;8.18;7.38;;;5.50;99.90;;;;;;4912149;29;20221;-86
2023/12/28 07:43:09;;;;;;;7.75;6.55;;;5.50;99.90;;;;;;4913001;29;20189;-86
2023/12/28 07:45:38;;;;;;;6.05;5.38;;;5.60;99.90;;;;;;4917949;29;20221;-86
2023/12/28 07:48:04;;;;;;;7.00;6.30;;;5.70;99.90;;;;;;4919050;29;20183;-86
2023/12/28 07:50:30;;;;;;;12.52;11.40;;;5.70;99.90;;;;;;4918591;29;20194;-85
2023/12/28 07:52:55;;;;;;;27.48;25.05;;;5.70;99.90;;;;;;4918986;29;20209;-85
2023/12/28 07:55:22;;;;;;;16.33;14.80;;;5.70;99.90;;;;;;4934845;29;20210;-85
2023/12/28 07:57:47;;;;;;;11.02;10.02;;;5.70;99.90;;;;;;4919381;29;20217;-85
2023/12/28 08:00:13;;;;;;;9.27;8.38;;;5.60;99.90;;;;;;4918960;29;20198;-86
2023/12/28 08:02:39;;;;;;;8.77;8.07;;;5.70;99.90;;;;;;4918467;29;20202;-86
2023/12/28 08:05:05;;;;;;;6.35;5.68;;;5.70;99.90;;;;;;4918857;29;20237;-86
2023/12/28 08:07:30;;;;;;;7.10;5.70;;;5.80;99.90;;;;;;4920673;29;20206;-86
2023/12/28 08:09:56;;;;;;;6.10;5.50;;;5.90;99.90;;;;;;4924061;29;20202;-86
2023/12/28 08:12:24;;;;;;;5.32;4.90;;;5.90;99.90;;;;;;4924171;29;20269;-86
2023/12/28 08:14:50;;;;;;;5.93;5.10;;;6.00;99.90;;;;;;4923986;29;20174;-86
2023/12/28 08:17:15;;;;;;;7.00;5.00;;;6.10;99.90;;;;;;4922898;29;20193;-86
2023/12/28 08:19:41;;;;;;;5.45;4.88;;;6.10;99.90;;;;;;4922741;29;20194;-85
2023/12/28 08:22:07;;;;;;;12.35;11.38;;;6.10;99.90;;;;;;4922753;29;20195;-85
2023/12/28 08:24:33;;;;;;;13.73;12.52;;;6.20;99.90;;;;;;4923087;29;20178;-85
2023/12/28 08:26:59;;;;;;;57.72;47.53;;;6.20;99.90;;;;;;4923517;29;20209;-85
2023/12/28 08:29:25;;;;;;;111.68;85.40;;;6.20;99.90;;;;;;4923134;29;20206;-85
2023/12/28 08:31:51;;;;;;;96.75;86.40;;;6.20;99.90;;;;;;4922932;29;20285;-85
2023/12/28 08:34:17;;;;;;;26.98;24.13;;;6.20;99.90;;;;;;4923166;29;20273;-85
2023/12/28 08:36:42;;;;;;;25.00;21.92;;;6.20;99.90;;;;;;4922342;29;20209;-85
2023/12/28 08:39:08;;;;;;;12.07;10.77;;;6.20;99.90;;;;;;4923138;29;20186;-85
2023/12/28 08:41:33;;;;;;;29.88;26.92;;;6.20;99.90;;;;;;4922330;29;20281;-85
2023/12/28 08:43:59;;;;;;;25.33;22.73;;;6.30;99.90;;;;;;4922478;29;20184;-85
2023/12/28 08:46:25;;;;;;;14.38;12.77;;;6.30;99.90;;;;;;4922566;29;20700;-85
2023/12/28 08:48:51;;;;;;;21.10;18.90;;;6.40;99.90;;;;;;4922551;29;20189;-85
2023/12/28 08:51:16;;;;;;;16.15;14.75;;;6.30;99.90;;;;;;4921972;29;20200;-85
2023/12/28 08:53:42;;;;;;;16.02;14.43;;;6.40;99.90;;;;;;4922549;29;20193;-85
2023/12/28 08:56:21;;;;;;;13.18;12.02;;;6.40;99.90;;;;;;4922153;29;20192;-85
2023/12/28 08:58:47;;;;;;;14.52;13.15;;;6.40;99.90;;;;;;4922396;29;20184;-85
2023/12/28 09:01:21;;;;;;;10.43;9.43;;;6.50;99.90;;;;;;4922276;29;20209;-85
2023/12/28 09:03:52;;;;;;;7.63;6.93;;;6.50;99.90;;;;;;4922855;29;20166;-85
2023/12/28 09:06:18;;;;;;;7.45;6.85;;;6.50;99.90;;;;;;4922688;29;20221;-85
2023/12/28 09:08:47;;;;;;;8.02;7.07;;;6.60;99.90;;;;;;4921957;29;20178;-85
2023/12/28 09:11:14;;;;;;;6.55;5.40;;;6.60;99.90;;;;;;4921690;29;20289;-85
2023/12/28 09:13:41;;;;;;;5.38;3.72;;;6.70;99.90;;;;;;4921810;29;20234;-85
2023/12/28 09:16:09;;;;;;;7.82;4.38;;;6.70;99.90;;;;;;4922068;29;20276;-85
2023/12/28 09:18:37;;;;;;;5.20;4.80;;;6.70;99.90;;;;;;4921363;29;20189;-85
2023/12/28 09:21:03;;;;;;;5.20;4.60;;;6.70;99.90;;;;;;4921837;29;20248;-85
2023/12/28 09:23:29;;;;;;;4.15;3.83;;;6.70;99.90;;;;;;4922109;29;20186;-85
2023/12/28 09:25:54;;;;;;;3.95;3.65;;;6.80;99.90;;;;;;4922636;29;20294;-85
2023/12/28 09:28:20;;;;;;;4.57;4.13;;;6.80;99.90;;;;;;4921635;29;20190;-86
2023/12/28 09:30:46;;;;;;;4.88;3.88;;;6.90;99.90;;;;;;4953627;28;20209;-85
2023/12/28 09:33:11;;;;;;;5.28;3.65;;;6.90;99.90;;;;;;4921944;29;20189;-85
2023/12/28 09:35:37;;;;;;;4.15;3.83;;;7.00;99.90;;;;;;4922765;29;20205;-85
2023/12/28 09:38:03;;;;;;;4.78;4.38;;;7.10;99.90;;;;;;4921554;29;20565;-86
2023/12/28 09:40:29;;;;;;;3.60;3.28;;;7.10;99.90;;;;;;4921929;29;20263;-86
2023/12/28 09:43:19;;;;;;;4.65;4.25;;;7.20;99.90;;;;;;4921667;29;20178;-86
2023/12/28 09:45:47;;;;;;;4.40;4.00;;;7.20;99.90;;;;;;4921507;29;20202;-86
2023/12/28 09:48:19;;;;;;;8.63;7.80;;;7.30;99.90;;;;;;4922220;29;20182;-86
2023/12/28 09:50:50;;;;;;;7.18;5.10;;;7.40;99.90;;;;;;4921250;29;20719;-86
2023/12/28 09:53:16;;;;;;;3.58;3.20;;;7.50;99.90;;;;;;4921242;29;20659;-86
2023/12/28 09:55:42;;;;;;;16.60;13.55;;;7.50;99.90;;;;;;4921450;29;20178;-86
2023/12/28 09:58:11;;;;;;;10.60;9.02;;;7.50;99.90;;;;;;4921129;29;20679;-86
2023/12/28 10:00:37;;;;;;;7.78;6.97;;;7.50;99.90;;;;;;4921637;29;20222;-87
2023/12/28 10:03:03;;;;;;;8.55;6.10;;;7.40;99.90;;;;;;4921349;29;20206;-87
2023/12/28 10:05:29;;;;;;;8.15;6.63;;;7.50;99.90;;;;;;4921434;29;20266;-87
2023/12/28 10:07:55;;;;;;;7.70;6.82;;;7.50;99.90;;;;;;4921209;29;20182;-87
2023/12/28 10:10:22;;;;;;;7.93;6.55;;;7.50;99.90;;;;;;4920786;29;20209;-87
2023/12/28 10:12:47;;;;;;;6.20;5.60;;;7.50;99.90;;;;;;4921556;29;20265;-87
2023/12/28 10:15:13;;;;;;;9.50;8.57;;;7.60;99.90;;;;;;4921648;29;20226;-87
2023/12/28 10:17:39;;;;;;;6.03;5.03;;;7.60;99.90;;;;;;4920723;29;20183;-87
2023/12/28 10:20:09;;;;;;;5.90;5.00;;;7.70;99.90;;;;;;4920506;29;20218;-87
2023/12/28 10:22:36;;;;;;;4.70;4.20;;;7.80;99.90;;;;;;4921817;29;20182;-87
2023/12/28 10:25:05;;;;;;;5.07;4.28;;;7.90;99.90;;;;;;4921299;29;20210;-87
2023/12/28 10:27:31;;;;;;;4.38;3.90;;;8.00;99.90;;;;;;4920367;29;20214;-87
2023/12/28 10:29:57;;;;;;;5.18;4.68;;;8.10;99.90;;;;;;4919838;29;20214;-87
2023/12/28 10:32:24;;;;;;;5.63;4.13;;;8.10;99.90;;;;;;4952486;29;20214;-87
2023/12/28 10:34:53;;;;;;;4.13;3.72;;;8.20;99.90;;;;;;4921269;29;20178;-87
2023/12/28 10:37:20;;;;;;;7.55;4.88;;;8.40;99.90;;;;;;4920656;29;20182;-87
2023/12/28 10:39:51;;;;;;;5.97;5.00;;;8.40;99.90;;;;;;4920193;29;20182;-87
2023/12/28 10:42:31;;;;;;;6.00;3.35;;;8.40;99.90;;;;;;4920776;29;20544;-87
2023/12/28 10:45:08;;;;;;;5.25;3.80;;;8.30;99.90;;;;;;4921064;29;20181;-87
2023/12/28 10:47:37;;;;;;;3.58;3.28;;;8.40;99.90;;;;;;4920413;29;20198;-87
2023/12/28 10:50:08;;;;;;;5.97;5.38;;;8.30;99.90;;;;;;4920045;29;20296;-86
2023/12/28 10:52:35;;;;;;;4.00;3.60;;;8.30;99.90;;;;;;4920333;29;20173;-87
2023/12/28 10:55:29;;;;;;;5.70;4.95;;;8.40;99.90;;;;;;4920241;29;20237;-87
2023/12/28 10:58:23;;;;;;;3.20;2.90;;;8.50;99.90;;;;;;4920562;29;20225;-87
2023/12/28 11:00:55;;;;;;;3.10;2.60;;;8.60;99.90;;;;;;4919942;29;20198;-87
2023/12/28 11:03:27;;;;;;;3.10;2.67;;;8.60;99.90;;;;;;4920741;29;20289;-87
2023/12/28 11:05:54;;;;;;;2.15;2.00;;;8.70;99.90;;;;;;4919988;29;20289;-87
2023/12/28 11:08:22;;;;;;;2.78;2.28;;;8.80;99.90;;;;;;4919932;29;20182;-87
2023/12/28 11:10:50;;;;;;;3.72;2.25;;;8.80;99.90;;;;;;4919895;29;20198;-87
2023/12/28 11:13:18;;;;;;;3.22;2.17;;;8.80;99.90;;;;;;4920797;29;20179;-87
2023/12/28 11:15:44;;;;;;;4.50;2.85;;;8.80;99.90;;;;;;4920490;29;20170;-86
2023/12/28 11:18:11;;;;;;;2.83;2.05;;;8.90;99.90;;;;;;4919587;29;20178;-86
2023/12/28 11:20:37;;;;;;;3.17;2.92;;;9.00;99.90;;;;;;4919467;29;20245;-86
2023/12/28 11:23:03;;;;;;;4.68;3.90;;;9.00;99.90;;;;;;4919622;29;20555;-86
2023/12/28 11:25:32;;;;;;;4.05;3.17;;;8.90;99.90;;;;;;4919811;29;20182;-86
2023/12/28 11:28:00;;;;;;;6.07;5.32;;;9.00;99.90;;;;;;4919510;29;20209;-86
2023/12/28 11:30:27;;;;;;;6.55;4.95;;;9.00;99.90;;;;;;4919883;29;20628;-86
2023/12/28 11:32:57;;;;;;;3.03;2.60;;;9.10;99.90;;;;;;4951962;29;20209;-86
2023/12/28 11:35:33;;;;;;;4.28;2.17;;;9.20;99.90;;;;;;4919417;29;20170;-86
2023/12/28 11:38:02;;;;;;;2.50;2.30;;;9.30;99.90;;;;;;4919267;29;20233;-86
2023/12/28 11:40:28;;;;;;;2.30;1.90;;;9.30;99.90;;;;;;4919893;29;20262;-86
2023/12/28 11:42:54;;;;;;;4.38;2.30;;;9.40;99.90;;;;;;4919497;29;20182;-86
2023/12/28 11:45:22;;;;;;;2.60;2.38;;;9.40;99.90;;;;;;4919896;29;20210;-86
2023/12/28 11:48:02;;;;;;;3.83;2.83;;;9.50;99.90;;;;;;4936247;29;20297;-86
2023/12/28 11:50:30;;;;;;;3.35;2.53;;;9.40;99.90;;;;;;4919960;29;20305;-86
2023/12/28 11:52:56;;;;;;;3.85;3.50;;;9.50;99.90;;;;;;4919521;29;20210;-85
2023/12/28 11:55:25;;;;;;;4.80;3.33;;;9.40;99.90;;;;;;4919998;29;20279;-85
2023/12/28 11:57:52;;;;;;;5.03;3.45;;;9.40;99.90;;;;;;4920002;29;20190;-87
2023/12/28 12:00:20;;;;;;;5.30;4.20;;;9.20;99.90;;;;;;4919176;29;20256;-87
2023/12/28 12:02:45;;;;;;;4.53;3.00;;;9.10;99.90;;;;;;4919245;29;20541;-87
2023/12/28 12:05:12;;;;;;;4.35;4.03;;;9.10;99.90;;;;;;4919311;29;20182;-87
2023/12/28 12:07:37;;;;;;;3.67;3.38;;;9.10;99.90;;;;;;4919876;29;20656;-86
2023/12/28 12:10:03;;;;;;;3.42;2.80;;;9.10;99.90;;;;;;4918977;29;20198;-86
2023/12/28 12:12:29;;;;;;;3.70;3.15;;;9.00;99.90;;;;;;4918808;29;20175;-86
2023/12/28 12:14:56;;;;;;;3.35;3.00;;;9.00;99.90;;;;;;4918897;29;20552;-86
2023/12/28 12:17:21;;;;;;;3.70;3.40;;;8.90;99.90;;;;;;4919716;29;20269;-86
2023/12/28 12:19:50;;;;;;;4.45;2.65;;;9.00;99.90;;;;;;4919447;29;20270;-86
2023/12/28 12:22:17;;;;;;;3.58;2.58;;;8.90;99.90;;;;;;4918912;29;20186;-86
2023/12/28 12:24:45;;;;;;;4.55;2.80;;;8.80;99.90;;;;;;4918885;29;20186;-86
2023/12/28 12:27:11;;;;;;;2.75;2.10;;;8.70;99.90;;;;;;4918963;29;20218;-86
2023/12/28 12:29:36;;;;;;;3.72;1.80;;;8.60;99.90;;;;;;4918670;29;20194;-86
2023/12/28 12:32:03;;;;;;;4.03;2.80;;;8.50;99.90;;;;;;4919034;29;20237;-86
